Time,TemperatureF,DewpointF,PressureIn,WindDirection,WindDirectionDegrees,WindSpeedMPH,WindSpeedGustMPH,Humidity,HourlyPrecipIn,Conditions,Clouds,dailyrainin,SoftwareType,DateUTC
2013-08-11 00:14:00,71.4,70.8,29.88,SSE,157,0.0,-999.0,98,-99.99,,,0.00,Acu-Link.com,2013-08-11 04:14:00,
2013-08-11 00:29:00,71.4,70.8,29.89,SSE,157,0.0,-999.0,98,-99.99,,,0.00,Acu-Link.com,2013-08-11 04:29:00,
2013-08-11 00:44:00,71.4,70.8,29.88,South,180,0.0,-999.0,98,-99.99,,,0.00,Acu-Link.com,2013-08-11 04:44:00,
2013-08-11 01:15:00,71.2,70.6,29.87,South,180,0.0,-999.0,98,-99.99,,,0.00,Acu-Link.com,2013-08-11 05:15:00,
2013-08-11 01:45:00,71.1,70.5,29.88,SSW,202,0.0,-999.0,98,-99.99,,,0.00,Acu-Link.com,2013-08-11 05:45:00,
2013-08-11 02:01:00,71.1,70.5,29.88,NNE,22,0.0,-999.0,98,-99.99,,,0.00,Acu-Link.com,2013-08-11 06:01:00,
2013-08-11 02:31:00,70.7,70.1,29.88,South,180,0.0,-999.0,98,-99.99,,,0.00,Acu-Link.com,2013-08-11 06:31:00,
2013-08-11 02:46:00,70.5,69.9,29.88,South,180,0.0,-999.0,98,-99.99,,,0.00,Acu-Link.com,2013-08-11 06:46:00,
2013-08-11 03:17:00,70.2,69.6,29.88,South,180,0.0,-999.0,98,-99.99,,,0.00,Acu-Link.com,2013-08-11 07:17:00,
2013-08-11 04:03:00,70.0,69.4,29.87,NNE,22,0.0,-999.0,98,-99.99,,,0.00,Acu-Link.com,2013-08-11 08:03:00,
2013-08-11 04:20:00,70.0,69.4,29.87,NNE,22,0.0,-999.0,98,-99.99,,,0.00,Acu-Link.com,2013-08-11 08:20:00,
2013-08-11 04:36:00,70.0,69.4,29.87,NNE,22,0.0,-999.0,98,-99.99,,,0.00,Acu-Link.com,2013-08-11 08:36:00,
2013-08-11 04:51:00,70.0,69.4,29.87,South,180,1.1,-999.0,98,-99.99,,,0.00,Acu-Link.com,2013-08-11 08:51:00,
2013-08-11 05:06:00,70.2,69.6,29.87,WNW,292,0.0,-999.0,98,-99.99,,,0.00,Acu-Link.com,2013-08-11 09:06:00,
2013-08-11 05:37:00,70.2,69.6,29.88,ESE,112,0.0,-999.0,98,-99.99,,,0.00,Acu-Link.com,2013-08-11 09:37:00,
2013-08-11 05:52:00,70.2,69.6,29.88,ENE,67,0.0,-999.0,98,-99.99,,,0.00,Acu-Link.com,2013-08-11 09:52:00,
2013-08-11 06:07:00,70.2,69.6,29.90,ESE,112,0.0,-999.0,98,-99.99,,,0.00,Acu-Link.com,2013-08-11 10:07:00,
2013-08-11 06:37:00,70.3,69.7,29.90,SSE,157,0.0,-999.0,98,-99.99,,,0.00,Acu-Link.com,2013-08-11 10:37:00,
2013-08-11 06:53:00,70.3,69.7,29.90,SSE,157,0.0,-999.0,98,-99.99,,,0.00,Acu-Link.com,2013-08-11 10:53:00,
2013-08-11 07:23:00,70.5,69.9,29.91,SSE,157,0.0,-999.0,98,-99.99,,,0.00,Acu-Link.com,2013-08-11 11:23:00,
2013-08-11 07:38:00,70.9,70.3,29.91,South,180,1.7,-999.0,98,-99.99,,,0.00,Acu-Link.com,2013-08-11 11:38:00,
2013-08-11 07:53:00,71.2,70.6,29.91,SSE,157,1.7,-999.0,98,-99.99,,,0.00,Acu-Link.com,2013-08-11 11:53:00,
2013-08-11 08:08:00,71.6,71.0,29.92,SE,135,1.7,-999.0,98,-99.99,,,0.00,Acu-Link.com,2013-08-11 12:08:00,
2013-08-11 08:39:00,72.9,72.3,29.92,SW,225,1.7,-999.0,98,-99.99,,,0.00,Acu-Link.com,2013-08-11 12:39:00,
2013-08-11 08:54:00,73.4,72.8,29.91,South,180,0.0,-999.0,98,-99.99,,,0.00,Acu-Link.com,2013-08-11 12:54:00,
2013-08-11 09:10:00,74.3,73.7,29.91,SSW,202,1.7,-999.0,98,-99.99,,,0.00,Acu-Link.com,2013-08-11 13:10:00,
2013-08-11 09:25:00,74.7,74.1,29.92,SSW,202,1.1,-999.0,98,-99.99,,,0.00,Acu-Link.com,2013-08-11 13:25:00,
2013-08-11 09:40:00,75.6,75.0,29.91,West,270,1.7,-999.0,98,-99.99,,,0.00,Acu-Link.com,2013-08-11 13:40:00,
2013-08-11 09:55:00,76.1,75.5,29.93,NNW,337,2.7,-999.0,98,-99.99,,,0.00,Acu-Link.com,2013-08-11 13:55:00,
2013-08-11 10:11:00,76.6,76.0,29.91,SSE,157,0.0,-999.0,98,-99.99,,,0.00,Acu-Link.com,2013-08-11 14:11:00,
2013-08-11 10:26:00,77.4,76.8,29.91,West,270,2.7,-999.0,98,-99.99,,,0.00,Acu-Link.com,2013-08-11 14:26:00,
2013-08-11 10:41:00,78.4,77.8,29.93,West,270,2.2,-999.0,98,-99.99,,,0.00,Acu-Link.com,2013-08-11 14:41:00,
2013-08-11 10:56:00,78.3,77.7,29.92,SSE,157,2.2,-999.0,98,-99.99,,,0.00,Acu-Link.com,2013-08-11 14:56:00,
2013-08-11 11:11:00,79.9,79.3,29.92,WSW,247,3.2,-999.0,98,-99.99,,,0.00,Acu-Link.com,2013-08-11 15:11:00,
2013-08-11 11:42:00,81.0,80.4,29.91,South,180,1.7,-999.0,98,-99.99,,,0.00,Acu-Link.com,2013-08-11 15:42:00,
2013-08-11 11:57:00,82.2,81.6,29.91,SW,225,4.7,-999.0,98,-99.99,,,0.00,Acu-Link.com,2013-08-11 15:57:00,
2013-08-11 12:12:00,83.3,82.7,29.91,SSE,157,2.7,-999.0,98,-99.99,,,0.00,Acu-Link.com,2013-08-11 16:12:00,
2013-08-11 12:28:00,83.3,82.7,29.91,SSE,157,2.7,-999.0,98,-99.99,,,0.00,Acu-Link.com,2013-08-11 16:28:00,
2013-08-11 12:43:00,84.4,83.8,29.90,South,180,3.7,-999.0,98,-99.99,,,0.00,Acu-Link.com,2013-08-11 16:43:00,
2013-08-11 12:58:00,85.5,84.9,29.90,ESE,112,3.2,-999.0,98,-99.99,,,0.00,Acu-Link.com,2013-08-11 16:58:00,
2013-08-11 13:14:00,88.2,87.6,29.88,SSE,157,6.8,-999.0,98,-99.99,,,0.00,Acu-Link.com,2013-08-11 17:14:00,
2013-08-11 13:29:00,88.3,87.7,29.89,South,180,2.7,-999.0,98,-99.99,,,0.00,Acu-Link.com,2013-08-11 17:29:00,
2013-08-11 13:44:00,88.2,87.6,29.86,SSE,157,4.7,-999.0,98,-99.99,,,0.00,Acu-Link.com,2013-08-11 17:44:00,
2013-08-11 14:00:00,90.7,86.6,29.86,SSW,202,2.7,-999.0,88,-99.99,,,0.00,Acu-Link.com,2013-08-11 18:00:00,
2013-08-11 14:15:00,93.2,84.9,29.86,South,180,2.2,-999.0,77,-99.99,,,0.00,Acu-Link.com,2013-08-11 18:15:00,
2013-08-11 15:01:00,91.8,84.3,29.84,SW,225,3.7,-999.0,79,-99.99,,,0.00,Acu-Link.com,2013-08-11 19:01:00,
2013-08-11 15:31:00,92.8,83.7,29.83,SSW,202,3.2,-999.0,75,-99.99,,,0.00,Acu-Link.com,2013-08-11 19:31:00,
2013-08-11 16:02:00,90.0,89.4,29.82,NNW,337,2.7,-999.0,98,-99.99,,,0.00,Acu-Link.com,2013-08-11 20:02:00,
2013-08-11 16:32:00,88.3,87.7,29.81,SSE,157,1.7,-999.0,98,-99.99,,,0.00,Acu-Link.com,2013-08-11 20:32:00,
2013-08-11 17:18:00,84.7,84.1,29.83,SW,225,3.2,-999.0,98,-99.99,,,0.00,Acu-Link.com,2013-08-11 21:18:00,
2013-08-11 17:34:00,82.9,82.3,29.86,North,0,8.3,-999.0,98,-99.99,,,0.00,Acu-Link.com,2013-08-11 21:34:00,
2013-08-11 17:49:00,77.9,77.3,29.88,NNE,22,4.7,-999.0,98,-99.99,,,0.01,Acu-Link.com,2013-08-11 21:49:00,
2013-08-11 18:04:00,74.1,73.5,29.85,South,180,1.7,-999.0,98,-99.99,,,0.27,Acu-Link.com,2013-08-11 22:04:00,
2013-08-11 18:20:00,74.3,73.7,29.87,South,180,1.1,-999.0,98,-99.99,,,0.27,Acu-Link.com,2013-08-11 22:20:00,
2013-08-11 18:35:00,74.1,73.5,29.88,SE,135,1.1,-999.0,98,-99.99,,,0.28,Acu-Link.com,2013-08-11 22:35:00,
2013-08-11 19:05:00,73.6,73.0,29.87,South,180,0.0,-999.0,98,-99.99,,,0.28,Acu-Link.com,2013-08-11 23:05:00,
2013-08-11 19:21:00,73.6,73.0,29.87,NNE,22,2.2,-999.0,98,-99.99,,,0.28,Acu-Link.com,2013-08-11 23:21:00,
2013-08-11 19:51:00,73.6,73.0,29.88,WSW,247,0.0,-999.0,98,-99.99,,,0.28,Acu-Link.com,2013-08-11 23:51:00,
2013-08-11 20:07:00,73.2,72.6,29.87,WSW,247,0.0,-999.0,98,-99.99,,,0.28,Acu-Link.com,2013-08-12 00:07:00,
2013-08-11 20:22:00,73.2,72.6,29.86,WSW,247,0.0,-999.0,98,-99.99,,,0.28,Acu-Link.com,2013-08-12 00:22:00,
2013-08-11 20:52:00,72.9,72.3,29.87,WNW,292,0.0,-999.0,98,-99.99,,,0.28,Acu-Link.com,2013-08-12 00:52:00,
2013-08-11 21:23:00,72.9,72.3,29.87,South,180,0.0,-999.0,98,-99.99,,,0.28,Acu-Link.com,2013-08-12 01:23:00,
2013-08-11 21:53:00,72.7,72.1,29.88,South,180,0.0,-999.0,98,-99.99,,,0.28,Acu-Link.com,2013-08-12 01:53:00,
2013-08-11 22:09:00,72.7,72.1,29.88,South,180,0.0,-999.0,98,-99.99,,,0.28,Acu-Link.com,2013-08-12 02:09:00,
2013-08-11 22:24:00,72.5,71.9,29.90,South,180,0.0,-999.0,98,-99.99,,,0.28,Acu-Link.com,2013-08-12 02:24:00,
2013-08-11 22:54:00,72.1,71.5,29.89,South,180,0.0,-999.0,98,-99.99,,,0.28,Acu-Link.com,2013-08-12 02:54:00,
2013-08-11 23:25:00,72.5,71.9,29.89,South,180,0.0,-999.0,98,-99.99,,,0.28,Acu-Link.com,2013-08-12 03:25:00,
2013-08-11 23:41:00,72.1,71.5,29.91,SSW,202,0.0,-999.0,98,-99.99,,,0.28,Acu-Link.com,2013-08-12 03:41:00,
2013-08-11 23:56:00,72.3,71.7,29.89,SW,225,0.0,-999.0,98,-99.99,,,0.28,Acu-Link.com,2013-08-12 03:56:00,